Time;durP1;ratioP1;P1;durP2;ratioP2;P2;SDS_P1;SDS_P2;PMS_P1;PMS_P2;Temp;Humidity;BMP_temperature;BMP_pressure;BME280_temperature;BME280_humidity;BME280_pressure;Samples;Min_cycle;Max_cycle;Signal;HPM_P1;HPM_P2
2024/03/26 00:01:27;;;;;;;4.10;1.20;;;;;;;6.97;64.81;99448.17;105149;1254;65740;-55
2024/03/26 00:03:54;;;;;;;5.70;1.80;;;;;;;6.97;64.86;99446.12;105298;1257;61966;-55
2024/03/26 00:06:22;;;;;;;6.10;2.00;;;;;;;6.95;64.92;99444.34;105342;1253;63799;-55
2024/03/26 00:08:49;;;;;;;6.40;1.70;;;;;;;6.92;64.91;99442.49;105203;1259;61339;-55
2024/03/26 00:11:17;;;;;;;4.70;2.20;;;;;;;6.94;64.88;99440.39;105236;1255;61228;-54
2024/03/26 00:13:44;;;;;;;4.50;1.60;;;;;;;6.94;64.97;99438.63;106080;1254;66217;-55
2024/03/26 00:16:12;;;;;;;4.60;1.50;;;;;;;6.92;64.92;99441.80;105121;1257;61624;-56
2024/03/26 00:18:39;;;;;;;5.30;1.70;;;;;;;6.90;65.02;99446.98;105178;1254;66989;-56
2024/03/26 00:21:07;;;;;;;6.50;2.00;;;;;;;6.89;65.06;99448.27;104965;1258;61274;-55
2024/03/26 00:23:34;;;;;;;5.60;1.60;;;;;;;6.91;64.82;99451.77;105247;1258;61430;-56
2024/03/26 00:26:02;;;;;;;3.50;1.20;;;;;;;6.94;64.62;99455.59;105440;1254;65751;-56
2024/03/26 00:28:29;;;;;;;5.70;1.90;;;;;;;6.92;64.70;99451.88;105092;1258;61292;-56
2024/03/26 00:30:57;;;;;;;6.20;1.60;;;;;;;6.87;64.63;99451.05;105049;1257;63865;-58
2024/03/26 00:33:24;;;;;;;7.40;2.10;;;;;;;6.88;64.71;99449.23;104751;1259;61350;-56
2024/03/26 00:35:52;;;;;;;5.20;1.30;;;;;;;6.93;64.56;99455.05;104912;1257;61262;-55
2024/03/26 00:38:19;;;;;;;5.10;2.00;;;;;;;6.93;64.58;99453.88;105216;1254;64591;-57
2024/03/26 00:40:47;;;;;;;2.70;0.80;;;;;;;6.90;64.66;99447.85;105241;1260;61409;-56
2024/03/26 00:43:14;;;;;;;3.70;1.10;;;;;;;6.86;64.59;99446.91;105998;1257;63831;-54
2024/03/26 00:45:42;;;;;;;4.00;1.30;;;;;;;6.93;64.41;99446.41;105143;1260;61254;-55
2024/03/26 00:48:09;;;;;;;5.90;1.70;;;;;;;6.93;64.42;99444.16;105348;1254;61245;-57
2024/03/26 00:50:37;;;;;;;3.20;0.90;;;;;;;6.88;64.46;99440.14;105393;1257;65799;-56
2024/03/26 00:53:04;;;;;;;7.90;2.60;;;;;;;6.87;64.33;99442.64;105260;1260;61878;-55
2024/03/26 00:55:32;;;;;;;3.60;1.30;;;;;;;6.92;64.46;99441.79;105267;1258;63990;-55
2024/03/26 00:57:59;;;;;;;5.60;1.50;;;;;;;6.95;64.45;99439.74;105202;1254;61217;-55
2024/03/26 01:00:27;;;;;;;5.30;1.30;;;;;;;6.97;64.41;99438.92;105072;1254;61363;-55
2024/03/26 01:02:54;;;;;;;4.30;1.10;;;;;;;6.94;64.35;99438.48;105231;1258;65708;-54
2024/03/26 01:05:22;;;;;;;4.50;1.50;;;;;;;6.89;64.37;99441.29;105142;1261;73107;-56
2024/03/26 01:07:49;;;;;;;4.60;1.40;;;;;;;6.90;64.33;99443.45;105886;1254;63704;-56
2024/03/26 01:10:17;;;;;;;8.60;3.00;;;;;;;6.95;64.25;99446.90;105165;1254;61747;-57
2024/03/26 01:12:44;;;;;;;5.50;1.30;;;;;;;6.96;64.19;99448.40;105156;1260;61302;-56
2024/03/26 01:15:12;;;;;;;5.00;1.30;;;;;;;6.93;64.19;99450.23;105296;1257;65673;-55
2024/03/26 01:17:39;;;;;;;5.60;1.70;;;;;;;6.89;64.19;99444.64;105163;1257;62075;-57
2024/03/26 01:20:07;;;;;;;4.10;1.60;;;;;;;6.90;64.13;99450.30;105136;1257;64010;-59
2024/03/26 01:22:35;;;;;;;3.90;1.10;;;;;;;6.92;63.99;99451.33;105220;1258;61312;-56
2024/03/26 01:25:02;;;;;;;4.70;1.50;;;;;;;6.93;64.05;99450.93;105191;1254;61238;-56
2024/03/26 01:27:30;;;;;;;4.10;1.10;;;;;;;6.90;64.06;99449.74;105654;1258;66477;-58
2024/03/26 01:29:57;;;;;;;6.30;1.80;;;;;;;6.88;63.75;99448.13;105231;1254;61811;-56
2024/03/26 01:32:26;;;;;;;5.30;1.30;;;;;;;6.90;63.69;99456.70;104919;1258;62580;-56
2024/03/26 01:34:53;;;;;;;5.60;1.50;;;;;;;6.89;63.62;99457.83;105103;1255;61274;-55
2024/03/26 01:37:21;;;;;;;4.30;1.60;;;;;;;6.87;63.71;99456.79;105766;1254;61244;-56
2024/03/26 01:39:48;;;;;;;4.30;1.30;;;;;;;6.84;63.75;99461.38;105875;1254;65697;-57
2024/03/26 01:42:16;;;;;;;3.80;1.10;;;;;;;6.89;63.78;99465.39;105249;1259;61274;-56
2024/03/26 01:44:44;;;;;;;5.00;1.50;;;;;;;6.96;63.69;99466.42;106652;1254;63801;-56
2024/03/26 01:47:11;;;;;;;4.10;1.20;;;;;;;6.96;63.43;99469.14;105099;1257;61450;-55
2024/03/26 01:49:39;;;;;;;4.10;1.30;;;;;;;6.94;63.53;99471.39;105114;1254;61285;-55
2024/03/26 01:52:07;;;;;;;4.90;2.00;;;;;;;6.88;63.55;99469.25;105238;1257;65827;-57
2024/03/26 01:54:34;;;;;;;4.10;1.40;;;;;;;6.88;63.43;99470.82;105350;1257;63390;-57
2024/03/26 01:57:02;;;;;;;4.10;1.00;;;;;;;6.92;63.33;99470.54;105599;1257;64213;-57
2024/03/26 01:59:29;;;;;;;4.60;1.30;;;;;;;6.89;63.26;99466.89;105407;1254;61329;-58
2024/03/26 02:01:58;;;;;;;5.40;1.50;;;;;;;6.86;63.33;99469.26;105495;1257;62032;-56
2024/03/26 02:04:25;;;;;;;9.70;3.00;;;;;;;6.82;63.46;99465.88;105194;1254;64433;-58
2024/03/26 02:06:53;;;;;;;5.30;2.20;;;;;;;6.87;63.33;99465.88;105103;1258;61299;-56
2024/03/26 02:09:20;;;;;;;5.10;1.30;;;;;;;6.92;63.21;99467.79;105251;1254;63780;-56
2024/03/26 02:11:48;;;;;;;6.70;1.40;;;;;;;6.90;63.26;99465.80;105148;1253;61393;-58
2024/03/26 02:14:16;;;;;;;3.50;1.30;;;;;;;6.87;63.29;99463.29;105998;1254;60148;-56
2024/03/26 02:16:44;;;;;;;3.90;1.10;;;;;;;6.89;63.23;99467.42;106122;1254;65339;-58
2024/03/26 02:19:13;;;;;;;4.80;1.10;;;;;;;6.95;63.09;99464.57;105286;1257;61120;-58
2024/03/26 02:21:40;;;;;;;5.10;1.70;;;;;;;6.96;62.91;99469.73;107617;1254;64298;-59
2024/03/26 02:24:08;;;;;;;4.60;1.50;;;;;;;6.96;62.85;99467.08;105188;1259;61160;-57
2024/03/26 02:26:35;;;;;;;4.00;1.40;;;;;;;6.93;62.97;99474.48;105124;1255;61421;-55
2024/03/26 02:29:03;;;;;;;3.30;0.80;;;;;;;6.94;62.74;99475.77;105196;1257;64501;-57
2024/03/26 02:31:30;;;;;;;2.90;1.10;;;;;;;6.98;62.57;99478.08;105213;1254;61363;-57
2024/03/26 02:33:58;;;;;;;6.30;2.90;;;;;;;6.95;62.45;99483.77;105246;1254;64443;-58
2024/03/26 02:36:26;;;;;;;2.90;0.90;;;;;;;6.91;62.53;99493.13;105032;1255;61365;-58
2024/03/26 02:38:53;;;;;;;4.30;1.20;;;;;;;6.88;62.55;99495.36;105240;1257;61260;-57
2024/03/26 02:41:21;;;;;;;3.60;1.30;;;;;;;6.94;62.42;99499.12;105119;1259;66798;-57
2024/03/26 02:43:48;;;;;;;4.60;1.20;;;;;;;6.94;62.36;99501.05;105121;1254;61400;-55
2024/03/26 02:46:16;;;;;;;5.50;1.10;;;;;;;6.87;62.29;99502.10;105273;1255;62513;-56
2024/03/26 02:48:43;;;;;;;3.40;1.20;;;;;;;6.86;62.42;99508.07;105117;1255;61227;-57
2024/03/26 02:51:11;;;;;;;3.90;1.20;;;;;;;6.91;62.30;99505.99;105040;1258;61167;-58
2024/03/26 02:53:38;;;;;;;7.20;1.30;;;;;;;6.93;62.11;99507.06;105138;1261;66240;-57
2024/03/26 02:56:06;;;;;;;3.00;1.10;;;;;;;6.89;62.07;99508.80;105159;1254;61593;-58
2024/03/26 02:58:34;;;;;;;3.70;1.10;;;;;;;6.87;62.15;99520.07;106840;1260;63694;-57
2024/03/26 03:01:11;;;;;;;5.80;1.70;;;;;;;6.90;62.18;99522.27;105442;1254;61244;-57
2024/03/26 03:03:38;;;;;;;5.70;2.00;;;;;;;6.96;61.97;99529.32;105223;1254;61388;-58
2024/03/26 03:06:09;;;;;;;4.80;1.40;;;;;;;6.98;61.87;99528.79;105077;1254;64569;-56
2024/03/26 03:08:37;;;;;;;5.30;1.60;;;;;;;6.98;61.82;99534.60;105205;1258;61952;-57
2024/03/26 03:11:05;;;;;;;4.20;1.30;;;;;;;6.97;61.84;99536.93;106174;1259;62464;-58
2024/03/26 03:13:32;;;;;;;5.80;1.30;;;;;;;6.95;61.76;99538.64;105044;1268;61416;-56
2024/03/26 03:16:00;;;;;;;4.10;1.30;;;;;;;6.96;61.60;99546.27;105051;1259;64534;-58
2024/03/26 03:18:27;;;;;;;5.00;1.50;;;;;;;6.95;61.56;99551.55;105038;1254;65828;-59
2024/03/26 03:20:54;;;;;;;5.50;1.60;;;;;;;6.88;61.65;99553.34;104892;1258;61248;-57
2024/03/26 03:23:22;;;;;;;4.80;1.30;;;;;;;6.86;61.63;99558.29;105123;1259;62499;-58
2024/03/26 03:25:53;;;;;;;4.00;1.00;;;;;;;6.88;61.67;99561.80;105040;1256;61394;-58
2024/03/26 03:28:21;;;;;;;4.30;1.40;;;;;;;6.89;61.70;99564.05;105187;1255;61386;-56
2024/03/26 03:30:49;;;;;;;3.70;1.10;;;;;;;6.88;61.76;99564.98;105084;1255;64456;-57
2024/03/26 03:33:16;;;;;;;7.10;1.70;;;;;;;6.85;61.78;99565.70;104983;1260;61292;-58
2024/03/26 03:35:43;;;;;;;12.40;2.30;;;;;;;6.86;61.72;99570.54;105198;1254;63788;-57
2024/03/26 03:38:11;;;;;;;3.10;1.00;;;;;;;6.89;61.61;99576.27;105336;1260;61187;-57
2024/03/26 03:40:38;;;;;;;3.20;1.20;;;;;;;6.90;61.51;99580.15;105071;1257;61358;-57
2024/03/26 03:43:06;;;;;;;4.60;1.20;;;;;;;6.87;61.60;99582.79;104777;1254;358413;-57
2024/03/26 03:47:41;;;;;;;4.00;1.30;;;;;;;6.48;62.47;99582.45;102281;1295;600321;-57
2024/03/26 03:50:09;;;;;;;3.70;1.00;;;;;;;6.78;61.59;99579.13;104335;1267;60055;-56
2024/03/26 03:52:36;;;;;;;4.40;0.80;;;;;;;6.87;61.44;99584.95;104371;1270;59635;-56
2024/03/26 03:55:04;;;;;;;3.90;1.00;;;;;;;6.87;61.36;99586.31;104806;1257;66425;-58
2024/03/26 03:57:32;;;;;;;4.30;0.80;;;;;;;6.83;61.45;99588.54;105282;1257;61661;-56
2024/03/26 04:00:00;;;;;;;3.50;1.20;;;;;;;6.79;61.49;99594.58;105021;1263;63822;-56
2024/03/26 04:02:37;;;;;;;3.00;1.00;;;;;;;6.83;61.29;99608.23;105047;1257;60095;-57
2024/03/26 04:05:06;;;;;;;4.60;1.30;;;;;;;6.88;61.25;99614.80;105222;1256;59818;-56
2024/03/26 04:07:34;;;;;;;3.90;1.10;;;;;;;6.92;61.20;99615.09;105476;1251;62863;-55
2024/03/26 04:10:02;;;;;;;5.20;1.60;;;;;;;6.92;61.01;99616.30;105781;1251;60410;-58
2024/03/26 04:12:30;;;;;;;4.10;1.40;;;;;;;6.92;60.95;99618.03;105746;1253;64389;-57
2024/03/26 04:14:58;;;;;;;4.60;0.90;;;;;;;6.88;60.78;99618.48;105429;1251;60507;-57
2024/03/26 04:17:25;;;;;;;4.00;1.10;;;;;;;6.89;60.58;99622.97;105926;1251;60526;-58
2024/03/26 04:20:01;;;;;;;2.70;0.80;;;;;;;6.93;60.58;99629.33;105677;1256;64931;-57
2024/03/26 04:22:31;;;;;;;3.50;0.90;;;;;;;6.93;60.52;99637.15;105961;1256;60590;-54
2024/03/26 04:25:00;;;;;;;3.80;0.80;;;;;;;6.91;60.41;99638.70;105698;1254;62672;-55
2024/03/26 04:27:27;;;;;;;4.00;1.10;;;;;;;6.89;60.60;99641.94;105301;1252;60361;-55
2024/03/26 04:29:55;;;;;;;4.30;1.30;;;;;;;6.91;60.41;99645.80;105498;1251;60635;-58
2024/03/26 04:32:22;;;;;;;3.70;1.00;;;;;;;6.96;60.36;99646.34;105474;1255;66127;-59
2024/03/26 04:34:50;;;;;;;6.50;1.90;;;;;;;6.96;60.00;99653.50;105231;1254;61495;-57
2024/03/26 04:37:18;;;;;;;4.70;1.00;;;;;;;6.95;59.97;99660.73;105481;1254;64258;-55
2024/03/26 04:39:45;;;;;;;3.80;1.10;;;;;;;6.95;60.06;99662.25;105651;1251;60552;-58
2024/03/26 04:42:13;;;;;;;3.50;1.30;;;;;;;6.98;59.83;99668.86;106265;1253;60412;-56
2024/03/26 04:44:41;;;;;;;5.40;1.20;;;;;;;7.01;59.78;99671.77;105476;1251;64895;-57
2024/03/26 04:47:08;;;;;;;5.10;1.10;;;;;;;7.02;59.42;99670.58;105470;1254;61312;-58
2024/03/26 04:49:36;;;;;;;5.70;1.00;;;;;;;7.03;59.44;99668.95;105426;1254;63690;-58
2024/03/26 04:52:03;;;;;;;4.20;1.10;;;;;;;7.01;59.32;99672.41;105563;1253;59285;-58
2024/03/26 04:54:31;;;;;;;3.60;1.10;;;;;;;7.02;59.38;99678.95;105449;1251;60529;-60
2024/03/26 04:56:58;;;;;;;6.10;1.20;;;;;;;7.04;59.54;99686.16;105366;1256;66092;-57
2024/03/26 04:59:26;;;;;;;4.00;1.50;;;;;;;7.06;59.19;99685.83;104923;1253;61113;-58
2024/03/26 05:01:53;;;;;;;3.80;1.20;;;;;;;7.09;58.94;99689.28;105209;1254;72572;-56
2024/03/26 05:04:21;;;;;;;4.10;1.10;;;;;;;7.12;59.18;99692.36;105159;1256;60457;-58
2024/03/26 05:06:49;;;;;;;3.60;1.20;;;;;;;7.12;59.35;99697.45;106911;1252;60365;-58
2024/03/26 05:09:16;;;;;;;4.30;1.50;;;;;;;7.16;59.50;99701.61;105282;1256;64951;-56
2024/03/26 05:11:44;;;;;;;3.60;0.90;;;;;;;7.22;58.89;99702.23;105317;1254;61885;-57
2024/03/26 05:14:11;;;;;;;7.40;2.90;;;;;;;7.29;58.71;99703.67;105279;1254;64299;-59
2024/03/26 05:16:39;;;;;;;3.80;0.80;;;;;;;7.24;58.69;99704.81;105142;1257;60556;-56
2024/03/26 05:19:06;;;;;;;4.30;0.80;;;;;;;7.23;58.67;99706.88;105326;1256;60379;-57
2024/03/26 05:21:34;;;;;;;3.10;1.30;;;;;;;7.20;58.77;99716.48;105338;1254;63730;-64
2024/03/26 05:24:03;;;;;;;4.70;0.90;;;;;;;7.23;58.70;99716.77;106663;1256;60457;-58
2024/03/26 05:26:44;;;;;;;3.30;0.80;;;;;;;7.28;58.70;99723.58;106006;1254;62434;-55
2024/03/26 05:29:20;;;;;;;4.80;1.10;;;;;;;7.30;58.87;99728.31;105239;1257;60559;-55
2024/03/26 05:31:51;;;;;;;5.60;0.80;;;;;;;7.30;58.89;99732.36;105632;1251;60335;-58
2024/03/26 05:34:20;;;;;;;4.90;0.90;;;;;;;7.29;58.76;99728.19;106169;1254;64969;-56
2024/03/26 05:36:52;;;;;;;7.60;2.60;;;;;;;7.34;58.66;99736.58;108380;1251;70495;-58
2024/03/26 05:39:20;;;;;;;3.10;0.70;;;;;;;7.42;58.53;99739.81;105117;1257;62558;-55
2024/03/26 05:41:50;;;;;;;3.60;0.80;;;;;;;7.47;58.39;99739.60;109309;1252;58543;-58
2024/03/26 05:44:18;;;;;;;5.80;1.10;;;;;;;7.46;58.09;99743.66;109316;1251;58503;-53
2024/03/26 05:46:45;;;;;;;2.90;1.10;;;;;;;7.46;58.09;99748.35;109268;1251;64931;-57
2024/03/26 05:49:13;;;;;;;3.30;0.70;;;;;;;7.44;57.86;99743.96;107469;1256;61863;-53
2024/03/26 05:51:42;;;;;;;3.80;0.90;;;;;;;7.47;57.95;99742.55;109274;1253;62476;-60
2024/03/26 05:54:09;;;;;;;6.60;2.40;;;;;;;7.53;57.78;99747.09;109185;1253;58528;-56
2024/03/26 05:56:37;;;;;;;6.00;1.50;;;;;;;7.58;57.78;99754.23;109329;1254;58165;-56
2024/03/26 05:59:05;;;;;;;3.50;1.00;;;;;;;7.59;57.71;99754.30;108119;1252;63602;-58
2024/03/26 06:01:32;;;;;;;3.60;0.90;;;;;;;7.57;57.56;99760.79;105264;1256;61140;-58
2024/03/26 06:04:00;;;;;;;3.90;0.70;;;;;;;7.54;57.60;99764.14;109278;1253;63922;-59
2024/03/26 06:06:29;;;;;;;1.80;0.50;;;;;;;7.59;57.44;99767.48;109270;1253;63028;-58
2024/03/26 06:08:56;;;;;;;3.30;0.80;;;;;;;7.65;57.42;99772.05;106749;1257;60427;-59
2024/03/26 06:11:24;;;;;;;4.40;1.50;;;;;;;7.68;57.34;99776.23;105213;1251;63609;-56
2024/03/26 06:13:51;;;;;;;2.80;0.50;;;;;;;7.65;57.27;99782.33;105343;1257;60466;-60
2024/03/26 06:16:19;;;;;;;3.70;1.40;;;;;;;7.63;57.38;99779.84;106134;1257;64287;-60
2024/03/26 06:18:46;;;;;;;2.90;0.80;;;;;;;7.62;57.51;99779.25;106159;1252;60618;-57
2024/03/26 06:21:14;;;;;;;5.80;2.20;;;;;;;7.67;57.47;99783.27;105489;1253;60509;-56
2024/03/26 06:23:42;;;;;;;2.20;0.60;;;;;;;7.70;57.37;99787.19;107108;1256;65246;-60
2024/03/26 06:26:10;;;;;;;3.60;1.00;;;;;;;7.69;57.19;99788.98;105420;1254;61557;-56
2024/03/26 06:28:37;;;;;;;4.20;1.10;;;;;;;7.69;57.28;99794.11;105660;1257;62515;-55
2024/03/26 06:31:05;;;;;;;7.20;1.10;;;;;;;7.67;57.40;99791.50;105305;1257;61833;-60
2024/03/26 06:33:32;;;;;;;3.10;0.90;;;;;;;7.69;57.16;99787.30;106509;1254;60593;-55
2024/03/26 06:36:00;;;;;;;7.20;2.10;;;;;;;7.72;57.13;99795.46;105383;1252;76462;-54
2024/03/26 06:38:28;;;;;;;5.30;1.40;;;;;;;7.76;57.37;99794.20;105234;1257;69065;-55
2024/03/26 06:40:57;;;;;;;4.60;1.00;;;;;;;7.78;57.18;99795.30;105388;1252;63902;-59
2024/03/26 06:43:24;;;;;;;3.00;1.10;;;;;;;7.78;56.90;99796.89;105849;1259;61588;-60
2024/03/26 06:45:52;;;;;;;4.70;1.20;;;;;;;7.73;56.83;99795.17;105182;1254;60334;-60
2024/03/26 06:48:20;;;;;;;4.00;1.30;;;;;;;7.78;56.74;99797.73;105898;1251;64902;-64
2024/03/26 06:50:48;;;;;;;2.70;0.80;;;;;;;7.86;56.88;99802.57;105285;1251;60763;-62
2024/03/26 06:53:15;;;;;;;4.60;1.20;;;;;;;7.92;56.53;99804.54;105236;1257;63844;-65
2024/03/26 06:55:42;;;;;;;4.10;0.80;;;;;;;7.94;56.48;99807.83;105326;1251;61622;-64
2024/03/26 06:58:10;;;;;;;4.80;1.20;;;;;;;7.96;56.14;99810.98;105659;1251;61077;-61
2024/03/26 07:00:38;;;;;;;3.70;1.00;;;;;;;7.97;55.85;99808.11;105454;1251;63780;-63
2024/03/26 07:03:06;;;;;;;5.90;2.40;;;;;;;7.95;55.91;99812.84;106257;1251;60535;-64
2024/03/26 07:05:33;;;;;;;7.40;1.20;;;;;;;7.98;56.12;99814.20;106425;1251;63707;-67
2024/03/26 07:08:02;;;;;;;2.90;0.80;;;;;;;8.09;55.82;99817.86;105860;1253;60513;-61
2024/03/26 07:10:30;;;;;;;3.70;0.90;;;;;;;8.17;55.73;99817.25;105866;1251;62036;-61
2024/03/26 07:12:57;;;;;;;3.90;1.20;;;;;;;8.21;55.52;99826.35;105324;1257;76395;-65
2024/03/26 07:15:25;;;;;;;4.30;1.40;;;;;;;8.22;55.58;99831.54;106241;1254;72462;-60
2024/03/26 07:17:54;;;;;;;8.60;2.70;;;;;;;8.23;55.43;99836.14;105272;1255;62595;-64
2024/03/26 07:20:27;;;;;;;5.60;1.40;;;;;;;8.24;55.06;99842.55;106486;1254;60550;-64
2024/03/26 07:22:56;;;;;;;3.70;1.40;;;;;;;8.25;55.37;99843.36;105674;1256;62155;-63
2024/03/26 07:25:27;;;;;;;3.20;0.80;;;;;;;8.31;55.32;99845.69;106272;1251;63868;-61
2024/03/26 07:27:57;;;;;;;4.00;1.30;;;;;;;8.38;54.68;99844.22;106389;1253;69176;-61
2024/03/26 07:30:24;;;;;;;5.30;2.30;;;;;;;8.45;54.52;99847.39;106523;1255;66321;-65
2024/03/26 07:32:52;;;;;;;7.60;1.10;;;;;;;8.49;54.02;99847.77;106899;1253;61741;-61
2024/03/26 07:35:20;;;;;;;3.70;1.10;;;;;;;8.57;54.27;99850.84;106074;1251;60424;-66
2024/03/26 07:37:47;;;;;;;7.50;1.40;;;;;;;8.62;54.05;99852.52;106210;1254;67577;-60
2024/03/26 07:40:16;;;;;;;7.10;2.20;;;;;;;8.65;53.60;99856.80;105360;1253;61358;-66
2024/03/26 07:42:43;;;;;;;2.90;0.70;;;;;;;8.67;53.34;99859.08;106310;1254;64868;-64
2024/03/26 07:45:11;;;;;;;3.00;1.10;;;;;;;8.70;53.38;99860.81;106405;1257;60417;-60
2024/03/26 07:47:42;;;;;;;5.70;2.00;;;;;;;8.75;53.51;99860.87;106117;1257;60529;-66
2024/03/26 07:50:09;;;;;;;2.50;0.80;;;;;;;8.88;52.99;99863.39;106101;1251;63868;-62
2024/03/26 07:52:37;;;;;;;3.00;0.90;;;;;;;8.92;52.39;99860.56;106393;1254;63423;-65
2024/03/26 07:55:05;;;;;;;5.10;2.10;;;;;;;8.92;52.17;99863.73;106093;1254;65981;-60
2024/03/26 07:57:33;;;;;;;5.60;1.30;;;;;;;8.92;51.91;99867.77;105443;1254;61394;-61
2024/03/26 08:00:01;;;;;;;4.00;1.30;;;;;;;8.92;51.66;99870.92;106444;1254;59483;-65
2024/03/26 08:02:37;;;;;;;2.90;0.70;;;;;;;8.96;52.13;99879.18;106312;1257;67820;-63
2024/03/26 08:05:06;;;;;;;2.60;1.00;;;;;;;9.01;52.58;99878.17;106308;1254;61731;-61
2024/03/26 08:07:37;;;;;;;6.60;2.60;;;;;;;9.05;51.81;99876.50;106492;1257;66148;-61
2024/03/26 08:10:05;;;;;;;2.70;0.90;;;;;;;9.08;51.36;99877.99;106583;1251;61246;-58
2024/03/26 08:12:34;;;;;;;5.20;1.80;;;;;;;9.12;51.34;99880.69;106249;1251;61322;-68
2024/03/26 08:15:02;;;;;;;4.60;0.70;;;;;;;9.17;51.46;99882.52;106693;1256;66707;-66
2024/03/26 08:17:30;;;;;;;2.50;0.70;;;;;;;9.29;51.61;99886.77;106638;1256;60369;-64
2024/03/26 08:19:58;;;;;;;5.00;1.50;;;;;;;9.40;50.89;99881.28;106607;1257;73702;-65
2024/03/26 08:22:26;;;;;;;2.10;0.50;;;;;;;9.46;50.48;99884.30;107520;1251;61297;-60
2024/03/26 08:24:53;;;;;;;8.70;1.90;;;;;;;9.50;50.10;99882.24;105308;1251;61380;-61
2024/03/26 08:27:21;;;;;;;3.80;0.80;;;;;;;9.52;50.03;99887.67;105785;1251;65731;-61
2024/03/26 08:29:51;;;;;;;5.80;0.80;;;;;;;9.55;50.15;99892.70;106295;1257;62612;-62
2024/03/26 08:32:18;;;;;;;4.70;1.80;;;;;;;9.62;50.27;99891.56;105709;1257;71075;-58
2024/03/26 08:34:46;;;;;;;3.50;0.80;;;;;;;9.68;49.64;99894.25;106976;1254;61339;-60
2024/03/26 08:37:13;;;;;;;5.50;1.60;;;;;;;9.70;49.30;99893.38;105237;1257;61224;-60
2024/03/26 08:39:42;;;;;;;4.10;0.50;;;;;;;9.73;49.21;99891.52;105527;1256;68935;-65
2024/03/26 08:42:11;;;;;;;4.30;1.50;;;;;;;9.78;49.59;99897.78;106391;1251;63501;-61
2024/03/26 08:44:38;;;;;;;2.70;0.60;;;;;;;9.83;49.49;99886.98;105449;1254;74898;-64
2024/03/26 08:47:06;;;;;;;4.10;1.10;;;;;;;9.85;48.86;99886.29;106291;1251;61413;-62
2024/03/26 08:49:34;;;;;;;3.30;1.00;;;;;;;9.85;48.51;99884.94;105637;1254;61310;-63
2024/03/26 08:52:01;;;;;;;4.30;1.60;;;;;;;9.85;48.82;99892.22;106435;1256;76856;-62
2024/03/26 08:54:29;;;;;;;2.00;0.50;;;;;;;9.87;48.79;99888.98;105550;1251;63169;-63
2024/03/26 08:56:57;;;;;;;5.80;1.30;;;;;;;9.90;48.65;99888.23;106005;1254;66061;-56
2024/03/26 08:59:25;;;;;;;2.10;0.60;;;;;;;9.95;48.45;99890.21;105227;1251;61174;-54
2024/03/26 09:01:53;;;;;;;3.90;1.00;;;;;;;9.99;48.31;99892.64;105128;1251;61223;-55
2024/03/26 09:04:20;;;;;;;2.80;0.50;;;;;;;10.04;48.45;99896.41;105163;1257;66104;-55
2024/03/26 09:06:51;;;;;;;3.40;1.00;;;;;;;10.11;48.21;99898.50;105376;1257;63373;-55
2024/03/26 09:09:19;;;;;;;3.00;1.10;;;;;;;10.13;46.78;99899.52;109307;1251;66086;-57
2024/03/26 09:11:49;;;;;;;2.50;0.70;;;;;;;10.14;46.36;99895.57;109329;1251;59509;-66
2024/03/26 09:14:17;;;;;;;1.00;0.20;;;;;;;10.16;46.07;99898.05;107763;1251;62251;-59
2024/03/26 09:16:45;;;;;;;6.20;1.00;;;;;;;10.19;45.95;99900.46;106863;1256;76839;-62
2024/03/26 09:19:12;;;;;;;3.50;0.50;;;;;;;10.22;46.17;99904.02;105295;1251;70202;-59
2024/03/26 09:21:42;;;;;;;3.80;1.00;;;;;;;10.25;45.41;99901.03;105294;1251;70848;-61
2024/03/26 09:24:10;;;;;;;2.50;0.70;;;;;;;10.25;45.44;99897.43;107121;1257;61259;-62
2024/03/26 09:26:38;;;;;;;2.90;0.80;;;;;;;10.30;45.75;99897.91;105740;1251;62274;-66
2024/03/26 09:29:06;;;;;;;1.80;0.40;;;;;;;10.36;45.63;99901.08;105224;1252;67911;-67
2024/03/26 09:31:33;;;;;;;4.90;1.10;;;;;;;10.43;45.33;99901.04;105371;1253;61829;-63
2024/03/26 09:34:01;;;;;;;3.90;1.10;;;;;;;10.45;44.85;99900.83;105429;1254;63833;-66
2024/03/26 09:36:29;;;;;;;1.30;0.50;;;;;;;10.51;44.62;99903.62;105505;1251;61340;-63
2024/03/26 09:38:56;;;;;;;4.10;0.80;;;;;;;10.54;44.85;99902.16;105398;1251;61340;-61
2024/03/26 09:41:36;;;;;;;2.70;0.70;;;;;;;10.62;45.17;99904.94;105466;1254;65859;-66
2024/03/26 09:44:03;;;;;;;3.60;0.70;;;;;;;10.70;44.64;99902.67;105703;1256;71074;-62
2024/03/26 09:46:35;;;;;;;3.40;0.70;;;;;;;10.72;43.65;99897.13;105672;1251;68647;-63
2024/03/26 09:49:04;;;;;;;2.20;0.40;;;;;;;10.73;43.92;99890.02;105559;1255;61366;-66
2024/03/26 09:51:32;;;;;;;4.40;1.20;;;;;;;10.76;43.93;99903.91;105394;1253;62242;-65
2024/03/26 09:54:00;;;;;;;1.00;0.20;;;;;;;10.79;44.06;99906.77;105830;1256;75745;-63
2024/03/26 09:56:28;;;;;;;3.10;0.80;;;;;;;10.89;44.20;99908.39;106087;1254;61207;-63
2024/03/26 09:58:55;;;;;;;3.30;1.20;;;;;;;10.95;43.96;99906.60;106224;1254;74881;-62
2024/03/26 10:01:24;;;;;;;1.80;0.40;;;;;;;11.02;44.14;99911.63;105413;1251;61228;-62
2024/03/26 10:03:52;;;;;;;4.20;1.10;;;;;;;11.08;44.03;99912.83;107028;1256;61163;-59
2024/03/26 10:06:20;;;;;;;3.70;1.00;;;;;;;11.15;44.16;99916.40;106174;1255;67859;-62
2024/03/26 10:08:48;;;;;;;2.50;0.70;;;;;;;11.25;44.41;99914.10;109368;1251;70632;-60
2024/03/26 10:11:15;;;;;;;5.50;1.40;;;;;;;11.38;44.68;99915.82;109346;1251;75312;-60
2024/03/26 10:13:43;;;;;;;6.60;1.50;;;;;;;11.48;45.22;99915.95;109317;1251;60547;-66
2024/03/26 10:16:10;;;;;;;4.60;1.40;;;;;;;11.55;45.37;99917.52;109262;1251;59070;-61
2024/03/26 10:18:38;;;;;;;5.10;1.50;;;;;;;11.65;44.80;99914.73;109299;1251;64693;-67
2024/03/26 10:21:06;;;;;;;4.80;1.40;;;;;;;11.72;44.54;99914.06;106459;1251;62232;-58
2024/03/26 10:23:34;;;;;;;2.60;0.80;;;;;;;11.82;44.88;99917.91;105477;1254;65817;-56
2024/03/26 10:26:02;;;;;;;4.30;1.50;;;;;;;11.90;44.52;99917.73;105762;1257;61244;-58
2024/03/26 10:28:29;;;;;;;5.50;1.70;;;;;;;11.94;43.81;99915.98;105530;1251;61311;-62
2024/03/26 10:30:57;;;;;;;3.60;1.10;;;;;;;11.96;43.63;99913.30;105488;1257;66022;-64
2024/03/26 10:33:25;;;;;;;6.70;1.40;;;;;;;11.97;43.42;99916.76;105284;1251;70178;-63
2024/03/26 10:35:54;;;;;;;4.30;1.50;;;;;;;11.99;43.46;99917.11;105786;1251;63916;-64
2024/03/26 10:38:23;;;;;;;3.80;1.30;;;;;;;11.98;43.02;99916.64;107388;1257;62183;-60
2024/03/26 10:41:09;;;;;;;4.10;1.10;;;;;;;12.03;43.45;99926.84;105976;1252;61154;-64
2024/03/26 10:43:38;;;;;;;2.90;0.70;;;;;;;12.13;43.94;99928.08;106109;1256;68124;-65
2024/03/26 10:46:06;;;;;;;4.30;1.30;;;;;;;12.16;43.28;99922.73;105871;1252;62648;-60
2024/03/26 10:48:34;;;;;;;4.40;1.60;;;;;;;12.19;43.06;99929.40;105905;1255;65797;-53
2024/03/26 10:51:10;;;;;;;;;;;;;;;12.22;43.07;99928.11;105566;1258;61323;-62
2024/03/26 10:53:39;;;;;;;4.10;1.30;;;;;;;12.21;42.60;99924.02;106410;1257;62337;-62
2024/03/26 10:56:08;;;;;;;6.10;1.40;;;;;;;12.20;42.89;99930.36;105513;1257;76042;-62
2024/03/26 10:58:36;;;;;;;4.40;1.40;;;;;;;12.16;42.59;99925.15;106207;1251;63522;-62
2024/03/26 11:01:05;;;;;;;6.00;1.20;;;;;;;12.15;42.64;99930.19;105686;1257;65876;-67
2024/03/26 11:03:32;;;;;;;4.80;1.50;;;;;;;12.17;42.73;99930.17;106069;1254;61271;-69
2024/03/26 11:06:02;;;;;;;5.20;1.40;;;;;;;12.16;42.62;99927.83;106424;1253;61242;-68
2024/03/26 11:08:41;;;;;;;4.60;1.40;;;;;;;12.14;42.53;99933.84;106777;1258;68215;-67
2024/03/26 11:11:13;;;;;;;4.00;1.30;;;;;;;12.16;42.77;99939.56;105490;1251;72653;-63
2024/03/26 11:13:40;;;;;;;5.90;1.30;;;;;;;12.15;42.34;99939.98;105557;1260;66113;-66
2024/03/26 11:16:08;;;;;;;2.90;0.90;;;;;;;12.18;42.29;99943.45;106141;1251;61311;-66
2024/03/26 11:18:38;;;;;;;4.00;1.40;;;;;;;12.19;42.65;99949.80;105591;1258;61432;-67
2024/03/26 11:21:08;;;;;;;4.10;1.40;;;;;;;12.17;42.16;99947.54;105559;1257;67778;-64
2024/03/26 11:23:37;;;;;;;4.20;1.10;;;;;;;12.18;41.99;99943.81;105679;1257;63587;-69
2024/03/26 11:26:04;;;;;;;3.40;1.10;;;;;;;12.14;41.62;99945.71;106438;1256;73686;-63
2024/03/26 11:28:32;;;;;;;4.20;1.30;;;;;;;12.06;41.58;99947.68;105381;1254;61448;-66
2024/03/26 11:31:01;;;;;;;3.60;1.00;;;;;;;12.00;42.03;99944.56;106586;1251;61256;-66
2024/03/26 11:33:32;;;;;;;4.40;1.00;;;;;;;12.02;42.13;99950.17;105660;1252;67038;-63
2024/03/26 11:36:01;;;;;;;4.60;1.40;;;;;;;12.10;42.13;99947.68;105689;1257;71252;-58
2024/03/26 11:38:29;;;;;;;5.00;1.00;;;;;;;12.15;41.74;99949.40;105625;1254;64707;-58